createdAt,value
2023-02-01T00:01:26.164Z,23.80
2023-02-01T00:03:54.491Z,30.90
2023-02-01T00:06:22.731Z,34.70
2023-02-01T00:08:55.273Z,32.00
2023-02-01T00:11:24.339Z,33.00
2023-02-01T00:13:52.616Z,32.20
2023-02-01T00:16:28.100Z,37.20
2023-02-01T00:19:05.531Z,39.70
2023-02-01T00:21:34.070Z,30.00
2023-02-01T00:24:03.105Z,30.80
2023-02-01T00:26:39.045Z,28.60
2023-02-01T00:29:13.338Z,26.00
2023-02-01T00:31:43.253Z,23.90
2023-02-01T00:34:16.886Z,23.20
2023-02-01T00:36:46.152Z,24.20
2023-02-01T00:39:15.109Z,31.60
2023-02-01T00:41:43.796Z,24.40
2023-02-01T00:44:11.979Z,18.90
2023-02-01T00:46:40.333Z,16.70
2023-02-01T00:49:10.147Z,16.60
2023-02-01T00:51:38.381Z,15.20
2023-02-01T00:54:06.655Z,15.60
2023-02-01T00:56:34.829Z,17.40
2023-02-01T00:59:03.038Z,20.00
2023-02-01T01:05:04.313Z,20.40
2023-02-01T01:07:32.545Z,18.10
2023-02-01T01:10:01.226Z,15.80
2023-02-01T01:12:29.314Z,20.30
2023-02-01T01:14:57.418Z,19.80
2023-02-01T01:17:25.582Z,19.40
2023-02-01T01:19:53.843Z,21.50
2023-02-01T01:22:21.910Z,13.10
2023-02-01T01:24:50.150Z,15.00
2023-02-01T01:27:23.948Z,19.50
2023-02-01T01:29:52.161Z,17.90
2023-02-01T01:32:20.326Z,19.90
2023-02-01T01:34:48.471Z,19.70
2023-02-01T01:37:16.598Z,21.10
2023-02-01T01:39:44.679Z,15.80
2023-02-01T01:42:15.598Z,15.90
2023-02-01T01:45:09.261Z,14.60
2023-02-01T01:50:17.965Z,15.30
2023-02-01T01:52:50.577Z,14.70
2023-02-01T01:55:21.511Z,16.00
2023-02-01T01:57:58.890Z,12.50
2023-02-01T02:00:27.663Z,15.00
2023-02-01T02:03:04.708Z,15.40
2023-02-01T02:05:32.816Z,12.50
2023-02-01T02:08:04.234Z,14.30
2023-02-01T02:10:51.463Z,14.60
2023-02-01T02:13:20.181Z,14.20
2023-02-01T02:16:17.305Z,17.10
2023-02-01T02:19:22.348Z,18.80
2023-02-01T02:22:34.738Z,18.50
2023-02-01T02:25:58.892Z,23.90
2023-02-01T02:29:13.647Z,32.20
2023-02-01T02:31:56.298Z,33.30
2023-02-01T02:34:51.802Z,26.50
2023-02-01T02:37:31.780Z,27.20
2023-02-01T02:40:33.947Z,20.90
2023-02-01T02:43:40.529Z,13.60
2023-02-01T02:46:46.183Z,14.70
2023-02-01T02:49:30.300Z,15.40
2023-02-01T02:52:39.067Z,15.10
2023-02-01T02:55:09.870Z,12.90
2023-02-01T02:58:01.516Z,13.50
2023-02-01T03:00:53.336Z,15.90
2023-02-01T03:03:40.404Z,15.30
2023-02-01T03:06:19.758Z,19.50
2023-02-01T03:08:48.540Z,21.30
2023-02-01T03:11:17.147Z,21.50
2023-02-01T03:14:01.774Z,19.40
2023-02-01T03:16:50.713Z,16.90
2023-02-01T03:19:38.348Z,16.00
2023-02-01T03:22:12.262Z,20.20
2023-02-01T03:24:49.123Z,20.70
2023-02-01T03:27:29.112Z,19.00
2023-02-01T03:30:01.043Z,16.50
2023-02-01T03:32:29.359Z,16.20
2023-02-01T03:34:57.642Z,19.80
2023-02-01T03:37:29.035Z,18.80
2023-02-01T03:40:05.900Z,16.30
2023-02-01T03:42:47.316Z,20.60
2023-02-01T03:45:22.698Z,20.90
2023-02-01T03:47:56.847Z,18.60
2023-02-01T03:50:28.309Z,16.60
2023-02-01T03:53:08.155Z,15.30
2023-02-01T03:55:37.666Z,18.20
2023-02-01T03:58:13.100Z,18.50
2023-02-01T04:00:45.023Z,15.00
2023-02-01T04:03:13.418Z,21.30
2023-02-01T04:05:41.539Z,16.00
2023-02-01T04:08:09.944Z,14.70
2023-02-01T04:10:38.080Z,18.90
2023-02-01T04:13:06.713Z,17.80
2023-02-01T04:15:35.942Z,22.70
2023-02-01T04:18:04.309Z,19.50
2023-02-01T04:20:32.931Z,19.40
2023-02-01T04:23:03.561Z,18.10
2023-02-01T04:25:31.689Z,18.50
2023-02-01T04:28:00.550Z,17.80
2023-02-01T04:30:28.735Z,20.40
2023-02-01T04:32:56.930Z,15.90
2023-02-01T04:35:25.044Z,18.40
2023-02-01T04:37:53.278Z,18.50
2023-02-01T04:40:21.759Z,18.20
2023-02-01T04:42:50.204Z,21.00
2023-02-01T04:45:18.326Z,19.80
2023-02-01T04:47:46.481Z,18.90
2023-02-01T04:50:14.741Z,20.80
2023-02-01T04:52:42.946Z,23.70
2023-02-01T04:55:11.072Z,21.90
2023-02-01T04:57:41.192Z,20.40
2023-02-01T05:00:10.774Z,24.00
2023-02-01T05:02:38.912Z,25.40
2023-02-01T05:05:07.456Z,26.40
2023-02-01T05:07:35.586Z,22.40
2023-02-01T05:10:04.844Z,21.20
2023-02-01T05:12:51.514Z,28.70
2023-02-01T05:15:19.584Z,47.30
2023-02-01T05:17:47.738Z,48.80
2023-02-01T05:20:15.969Z,41.40
2023-02-01T05:22:44.077Z,55.30
2023-02-01T05:25:12.185Z,54.50
2023-02-01T05:27:41.083Z,77.10
2023-02-01T05:30:10.580Z,69.30
2023-02-01T05:32:38.862Z,82.90
2023-02-01T05:35:07.866Z,57.20
2023-02-01T05:37:35.997Z,51.70
2023-02-01T05:40:04.575Z,46.80
2023-02-01T05:42:32.687Z,31.20
2023-02-01T05:45:00.828Z,26.00
2023-02-01T05:47:29.123Z,33.80
2023-02-01T05:49:57.272Z,41.30
2023-02-01T05:52:25.427Z,38.20
2023-02-01T05:54:54.097Z,23.50
2023-02-01T05:57:22.622Z,14.90
2023-02-01T05:59:50.793Z,14.50
2023-02-01T06:02:19.153Z,17.60
2023-02-01T06:04:47.329Z,20.80
2023-02-01T06:07:15.480Z,22.80
2023-02-01T06:09:43.647Z,18.50
2023-02-01T06:12:11.782Z,19.20
2023-02-01T06:14:39.905Z,25.10
2023-02-01T06:17:08.078Z,25.90
2023-02-01T06:19:36.168Z,26.60
2023-02-01T06:22:07.176Z,22.70
2023-02-01T06:24:36.047Z,21.70
2023-02-01T06:27:04.332Z,22.40
2023-02-01T06:29:32.465Z,26.00
2023-02-01T06:32:00.651Z,28.70
2023-02-01T06:34:28.799Z,28.80
2023-02-01T06:36:56.984Z,34.40
2023-02-01T06:39:25.158Z,31.20
2023-02-01T06:41:53.253Z,30.30
2023-02-01T06:44:21.984Z,25.40
2023-02-01T06:46:50.132Z,24.80
2023-02-01T06:49:19.481Z,32.40
2023-02-01T06:51:47.863Z,29.40
2023-02-01T06:54:16.087Z,31.70
2023-02-01T06:56:44.214Z,28.90
2023-02-01T06:59:12.476Z,24.10
2023-02-01T07:01:40.804Z,23.20
2023-02-01T07:04:12.365Z,21.50
2023-02-01T07:06:41.008Z,28.00
2023-02-01T07:09:09.574Z,33.80
2023-02-01T07:11:40.420Z,33.20
2023-02-01T07:14:08.661Z,35.00
2023-02-01T07:16:37.134Z,25.00
2023-02-01T07:19:05.750Z,27.70
2023-02-01T07:21:33.838Z,32.20
2023-02-01T07:24:01.990Z,21.10
2023-02-01T07:26:30.380Z,20.20
2023-02-01T07:28:58.547Z,18.30
2023-02-01T07:31:29.941Z,23.40
2023-02-01T07:33:59.209Z,22.40
2023-02-01T07:36:27.318Z,20.60
2023-02-01T07:38:56.861Z,22.10
2023-02-01T07:41:25.162Z,21.00
2023-02-01T07:43:54.685Z,19.00
2023-02-01T07:46:22.863Z,18.00
2023-02-01T07:48:51.003Z,19.70
2023-02-01T07:51:19.246Z,21.10
2023-02-01T07:53:47.475Z,21.50
2023-02-01T07:56:23.583Z,24.50
2023-02-01T07:58:54.273Z,25.40
2023-02-01T08:01:26.448Z,20.10
2023-02-01T08:04:01.200Z,20.90
2023-02-01T08:06:37.842Z,19.70
2023-02-01T08:09:12.193Z,16.60
2023-02-01T08:11:40.380Z,18.00
2023-02-01T08:14:08.577Z,19.00
2023-02-01T08:16:38.859Z,17.60
2023-02-01T08:19:07.780Z,19.10
2023-02-01T08:21:38.576Z,20.40
2023-02-01T08:24:10.254Z,29.40
2023-02-01T08:26:38.783Z,27.10
2023-02-01T08:29:09.302Z,23.00
2023-02-01T08:31:41.658Z,30.80
2023-02-01T08:34:10.044Z,29.20
2023-02-01T08:36:39.244Z,29.00
2023-02-01T08:39:10.036Z,31.90
2023-02-01T08:41:39.173Z,43.70
2023-02-01T08:44:07.298Z,44.30
2023-02-01T08:46:35.451Z,38.90
2023-02-01T08:49:03.579Z,42.10
2023-02-01T08:51:31.677Z,39.70
2023-02-01T08:53:59.773Z,26.30
2023-02-01T08:56:28.073Z,27.40
2023-02-01T08:58:56.410Z,28.90
2023-02-01T09:01:24.695Z,25.50
2023-02-01T09:03:52.950Z,30.20
2023-02-01T09:06:21.067Z,21.20
2023-02-01T09:08:49.217Z,19.90
2023-02-01T09:11:20.474Z,26.30
2023-02-01T09:13:49.688Z,22.80
2023-02-01T09:16:17.966Z,19.70
2023-02-01T09:18:55.946Z,21.40
2023-02-01T09:21:34.998Z,18.80
2023-02-01T09:24:03.427Z,23.30
2023-02-01T09:26:33.007Z,16.30
2023-02-01T09:29:01.822Z,23.30
2023-02-01T09:31:31.431Z,20.70
2023-02-01T09:33:59.855Z,16.90
2023-02-01T09:36:30.198Z,18.60
2023-02-01T09:39:00.508Z,21.90
2023-02-01T09:41:49.612Z,19.30
2023-02-01T09:44:51.792Z,18.50
2023-02-01T09:47:23.763Z,19.40
2023-02-01T09:50:22.977Z,19.60
2023-02-01T09:53:10.922Z,17.20
2023-02-01T09:55:52.574Z,25.20
2023-02-01T09:58:43.247Z,21.70
2023-02-01T10:01:32.937Z,18.50
2023-02-01T10:04:11.436Z,15.00
2023-02-01T10:07:11.402Z,14.30
2023-02-01T10:10:12.202Z,16.60
2023-02-01T10:12:55.546Z,20.90
2023-02-01T10:18:41.474Z,20.70
2023-02-01T10:21:52.348Z,16.50
2023-02-01T10:24:41.112Z,10.80
2023-02-01T10:27:23.615Z,8.90
2023-02-01T10:30:11.451Z,7.00
2023-02-01T10:32:42.072Z,6.80
2023-02-01T10:35:24.201Z,4.90
2023-02-01T10:37:53.170Z,5.20
2023-02-01T10:40:27.183Z,6.40
2023-02-01T10:43:02.005Z,4.80
2023-02-01T10:45:33.538Z,5.10
2023-02-01T10:48:05.153Z,9.90
2023-02-01T10:51:24.984Z,10.80
2023-02-01T10:54:12.622Z,9.80
2023-02-01T10:56:40.799Z,11.60
2023-02-01T10:59:25.345Z,7.60
2023-02-01T11:02:16.212Z,5.10
2023-02-01T11:04:44.319Z,6.90
2023-02-01T11:07:25.593Z,4.30
2023-02-01T11:09:57.302Z,5.10
2023-02-01T11:12:39.116Z,6.70
2023-02-01T11:15:23.816Z,8.00
2023-02-01T11:17:53.871Z,9.40
2023-02-01T11:20:40.987Z,4.70
2023-02-01T11:23:22.647Z,5.00
2023-02-01T11:25:58.045Z,8.60
2023-02-01T11:28:32.161Z,6.30
2023-02-01T11:31:10.104Z,6.00
2023-02-01T11:33:44.151Z,8.00
2023-02-01T11:36:19.229Z,6.80
2023-02-01T11:39:15.938Z,4.80
2023-02-01T11:42:14.237Z,8.50
2023-02-01T11:44:48.251Z,4.90
2023-02-01T11:47:32.485Z,8.60
2023-02-01T11:50:04.480Z,6.00
2023-02-01T11:52:38.461Z,6.40
2023-02-01T11:55:27.441Z,7.40
2023-02-01T11:58:07.722Z,8.60
2023-02-01T12:00:50.374Z,8.50
2023-02-01T12:03:55.859Z,7.70
2023-02-01T12:06:36.543Z,6.40
2023-02-01T12:09:34.970Z,5.10
2023-02-01T12:12:09.029Z,7.50
2023-02-01T12:14:46.306Z,5.80
2023-02-01T12:17:48.289Z,6.20
2023-02-01T12:20:28.699Z,5.60
2023-02-01T12:23:47.195Z,7.20
2023-02-01T12:26:45.809Z,4.90
2023-02-01T12:30:11.526Z,5.30
2023-02-01T12:32:58.167Z,5.20
2023-02-01T12:35:57.213Z,6.50
2023-02-01T12:38:55.870Z,4.70
2023-02-01T12:41:52.280Z,7.50
2023-02-01T12:44:59.902Z,8.00
2023-02-01T12:47:40.444Z,6.30
2023-02-01T12:50:48.101Z,7.50
2023-02-01T12:53:33.893Z,6.00
2023-02-01T12:56:12.408Z,5.60
2023-02-01T12:58:52.196Z,15.40
2023-02-01T13:01:36.540Z,4.80
2023-02-01T13:04:27.289Z,6.20
2023-02-01T13:07:17.791Z,4.50
2023-02-01T13:10:35.511Z,5.60
2023-02-01T13:13:23.904Z,6.60
2023-02-01T13:16:23.208Z,7.60
2023-02-01T13:18:54.730Z,7.50
2023-02-01T13:21:32.947Z,9.70
2023-02-01T13:24:01.082Z,11.90
2023-02-01T13:26:29.205Z,13.10
2023-02-01T13:29:11.527Z,9.30
2023-02-01T13:32:18.301Z,19.40
2023-02-01T13:35:05.053Z,13.40
2023-02-01T13:37:53.406Z,11.30
2023-02-01T13:40:42.834Z,8.40
2023-02-01T13:43:30.969Z,8.30
2023-02-01T13:46:07.733Z,8.40
2023-02-01T13:48:41.811Z,11.00
2023-02-01T13:51:10.205Z,7.60
2023-02-01T13:53:45.307Z,10.80
2023-02-01T13:56:20.591Z,8.00
2023-02-01T13:58:49.519Z,10.20
2023-02-01T14:01:23.999Z,8.00
2023-02-01T14:03:54.421Z,9.50
2023-02-01T14:06:28.785Z,14.00
2023-02-01T14:09:09.224Z,14.30
2023-02-01T14:11:46.321Z,14.70
2023-02-01T14:14:17.407Z,13.00
2023-02-01T14:16:54.963Z,12.00
2023-02-01T14:19:35.057Z,11.10
2023-02-01T14:22:15.466Z,9.90
2023-02-01T14:24:54.473Z,11.80
2023-02-01T14:27:31.397Z,11.70
2023-02-01T14:30:05.967Z,10.60
2023-02-01T14:32:47.726Z,16.60
2023-02-01T14:35:27.269Z,10.80
2023-02-01T14:38:03.661Z,9.10
2023-02-01T14:40:32.915Z,14.70
2023-02-01T14:43:01.366Z,13.70
2023-02-01T14:45:29.511Z,15.40
2023-02-01T14:48:06.920Z,12.40
2023-02-01T14:50:41.895Z,11.20
2023-02-01T14:53:13.631Z,12.60
2023-02-01T14:55:48.518Z,10.10
2023-02-01T14:58:42.766Z,11.80
2023-02-01T15:01:25.027Z,10.90
2023-02-01T15:04:12.029Z,10.50
2023-02-01T15:06:42.343Z,12.60
2023-02-01T15:09:29.461Z,12.50
2023-02-01T15:12:12.683Z,14.00
2023-02-01T15:14:51.206Z,14.20
2023-02-01T15:17:34.931Z,11.30
2023-02-01T15:20:18.949Z,17.60
2023-02-01T15:23:17.167Z,38.10
2023-02-01T15:25:47.594Z,22.50
2023-02-01T15:28:18.036Z,22.00
2023-02-01T15:31:04.755Z,41.00
2023-02-01T15:33:33.491Z,56.10
2023-02-01T15:36:09.376Z,54.50
2023-02-01T15:38:45.681Z,53.30
2023-02-01T15:41:21.806Z,45.20
2023-02-01T15:43:55.958Z,48.00
2023-02-01T15:46:43.629Z,47.00
2023-02-01T15:49:33.268Z,44.20
2023-02-01T15:52:03.815Z,68.70
2023-02-01T15:54:53.364Z,73.70
2023-02-01T15:57:31.841Z,60.50
2023-02-01T16:00:09.032Z,54.60
2023-02-01T16:02:56.372Z,56.30
2023-02-01T16:05:30.889Z,52.50
2023-02-01T16:08:16.749Z,47.60
2023-02-01T16:10:48.244Z,43.40
2023-02-01T16:13:18.544Z,37.80
2023-02-01T16:15:47.841Z,31.80
2023-02-01T16:18:18.911Z,44.00
2023-02-01T16:20:48.924Z,38.00
2023-02-01T16:23:17.136Z,38.40
2023-02-01T16:25:45.287Z,49.70
2023-02-01T16:28:13.712Z,41.30
2023-02-01T16:30:41.913Z,42.10
2023-02-01T16:33:20.599Z,42.10
2023-02-01T16:35:50.167Z,38.80
2023-02-01T16:38:23.146Z,50.70
2023-02-01T16:40:51.751Z,47.30
2023-02-01T16:43:27.092Z,54.60
2023-02-01T16:46:00.187Z,48.50
2023-02-01T16:48:32.631Z,49.20
2023-02-01T16:51:04.656Z,54.70
2023-02-01T16:53:36.611Z,59.00
2023-02-01T16:56:22.247Z,67.20
2023-02-01T16:58:51.379Z,77.30
2023-02-01T17:01:20.437Z,73.70
2023-02-01T17:03:49.079Z,61.10
2023-02-01T17:06:23.958Z,61.00
2023-02-01T17:08:59.041Z,57.90
2023-02-01T17:11:30.813Z,57.50
2023-02-01T17:14:17.522Z,55.30
2023-02-01T17:16:49.120Z,64.00
2023-02-01T17:19:24.471Z,56.50
2023-02-01T17:21:56.711Z,66.90
2023-02-01T17:24:42.470Z,63.80
2023-02-01T17:27:18.146Z,65.30
2023-02-01T17:29:47.197Z,61.20
2023-02-01T17:32:23.645Z,61.80
2023-02-01T17:34:51.939Z,64.50
2023-02-01T17:37:27.740Z,71.80
2023-02-01T17:39:56.270Z,64.80
2023-02-01T17:42:26.753Z,74.00
2023-02-01T17:45:37.505Z,75.10
2023-02-01T17:48:07.720Z,60.20
2023-02-01T17:50:38.238Z,64.80
2023-02-01T17:53:09.732Z,70.00
2023-02-01T17:55:43.188Z,50.10
2023-02-01T17:58:14.142Z,59.50
2023-02-01T18:00:43.822Z,57.60
2023-02-01T18:03:30.080Z,50.70
2023-02-01T18:05:59.523Z,42.10
2023-02-01T18:08:30.931Z,45.90
2023-02-01T18:11:01.483Z,38.10
2023-02-01T18:13:32.263Z,39.30
2023-02-01T18:16:02.007Z,41.20
2023-02-01T18:18:33.428Z,38.00
2023-02-01T18:21:01.559Z,33.80
2023-02-01T18:23:29.949Z,35.30
2023-02-01T18:25:58.709Z,34.30
2023-02-01T18:28:26.879Z,26.80
2023-02-01T18:30:55.288Z,31.10
2023-02-01T18:33:23.541Z,27.10
2023-02-01T18:35:51.830Z,27.20
2023-02-01T18:38:20.136Z,23.10
2023-02-01T18:40:58.704Z,26.70
2023-02-01T18:43:26.866Z,24.50
2023-02-01T18:45:55.656Z,19.90
2023-02-01T18:48:23.968Z,16.90
2023-02-01T18:50:54.244Z,16.80
2023-02-01T18:53:27.096Z,15.20
2023-02-01T18:55:57.732Z,13.80
2023-02-01T18:58:26.914Z,14.50
2023-02-01T19:00:58.050Z,15.60
2023-02-01T19:03:26.962Z,14.60
2023-02-01T19:05:56.980Z,14.00
2023-02-01T19:08:25.930Z,14.00
2023-02-01T19:10:55.369Z,12.70
2023-02-01T19:13:26.022Z,12.10
2023-02-01T19:15:54.274Z,12.80
2023-02-01T19:18:23.449Z,12.00
2023-02-01T19:20:54.707Z,14.60
2023-02-01T19:23:23.104Z,20.20
2023-02-01T19:25:51.197Z,26.30
2023-02-01T19:28:19.360Z,25.50
2023-02-01T19:30:47.584Z,19.60
2023-02-01T19:33:17.609Z,12.00
2023-02-01T19:35:45.684Z,11.10
2023-02-01T19:38:14.799Z,12.70
2023-02-01T19:40:43.556Z,8.30
2023-02-01T19:43:11.649Z,8.50
2023-02-01T19:45:39.770Z,11.40
2023-02-01T19:48:08.422Z,9.80
2023-02-01T19:50:36.504Z,10.30
2023-02-01T19:53:04.664Z,12.60
2023-02-01T19:55:32.808Z,15.50
2023-02-01T19:58:02.482Z,17.60
2023-02-01T20:00:31.379Z,15.10
2023-02-01T20:02:59.583Z,19.00
2023-02-01T20:05:27.845Z,16.30
2023-02-01T20:07:55.988Z,16.60
2023-02-01T20:10:24.496Z,13.60
2023-02-01T20:12:52.601Z,10.10
2023-02-01T20:15:24.798Z,8.30
2023-02-01T20:17:53.673Z,11.90
2023-02-01T20:20:23.155Z,10.60
2023-02-01T20:22:53.401Z,17.80
2023-02-01T20:25:23.438Z,17.70
2023-02-01T20:27:52.694Z,14.60
2023-02-01T20:30:21.605Z,11.30
2023-02-01T20:32:50.708Z,12.90
2023-02-01T20:35:19.358Z,13.20
2023-02-01T20:37:48.997Z,10.90
2023-02-01T20:40:17.766Z,11.50
2023-02-01T20:42:46.060Z,12.40
2023-02-01T20:45:14.276Z,10.70
2023-02-01T20:47:43.360Z,8.90
2023-02-01T20:50:12.268Z,12.00
2023-02-01T20:52:40.452Z,10.70
2023-02-01T20:55:09.146Z,13.80
2023-02-01T20:57:37.468Z,11.80
2023-02-01T21:00:12.673Z,8.00
2023-02-01T21:02:40.836Z,8.90
2023-02-01T21:05:09.559Z,18.60
2023-02-01T21:07:38.700Z,33.10
2023-02-01T21:10:07.828Z,25.90
2023-02-01T21:12:37.022Z,38.30
2023-02-01T21:15:06.145Z,35.50
2023-02-01T21:17:34.292Z,47.60
2023-02-01T21:20:02.401Z,41.10
2023-02-01T21:22:30.976Z,45.50
2023-02-01T21:25:00.706Z,43.10
2023-02-01T21:27:30.043Z,22.10
2023-02-01T21:29:58.113Z,17.60
2023-02-01T21:32:26.249Z,13.50
2023-02-01T21:34:54.402Z,19.40
2023-02-01T21:37:25.669Z,17.40
2023-02-01T21:39:53.808Z,22.30
2023-02-01T21:42:24.453Z,21.60
2023-02-01T21:44:53.168Z,22.20
2023-02-01T21:47:26.055Z,13.90
2023-02-01T21:49:55.442Z,14.50
2023-02-01T21:52:24.424Z,12.10
2023-02-01T21:54:59.301Z,12.60
2023-02-01T21:57:29.175Z,12.90
2023-02-01T21:59:58.850Z,12.20
2023-02-01T22:02:28.169Z,14.40
2023-02-01T22:04:57.733Z,13.50
2023-02-01T22:07:25.931Z,12.90
2023-02-01T22:09:54.364Z,14.20
2023-02-01T22:12:23.311Z,13.80
2023-02-01T22:14:51.410Z,15.90
2023-02-01T22:17:19.551Z,11.50
2023-02-01T22:19:47.692Z,12.50
2023-02-01T22:22:16.757Z,11.40
2023-02-01T22:24:44.914Z,10.10
2023-02-01T22:27:13.360Z,9.90
2023-02-01T22:29:43.641Z,6.90
2023-02-01T22:32:13.876Z,8.60
2023-02-01T22:34:42.093Z,9.80
2023-02-01T22:37:11.260Z,9.10
2023-02-01T22:39:41.175Z,6.70
2023-02-01T22:42:09.573Z,5.90
2023-02-01T22:44:37.659Z,8.50
2023-02-01T22:47:05.773Z,7.50
2023-02-01T22:49:33.910Z,7.10
2023-02-01T22:52:02.111Z,5.80
2023-02-01T22:54:30.415Z,6.50
2023-02-01T22:57:00.238Z,6.00
2023-02-01T22:59:29.003Z,6.90
2023-02-01T23:01:57.118Z,5.90
2023-02-01T23:04:25.456Z,5.10
2023-02-01T23:06:53.622Z,6.60
2023-02-01T23:09:25.421Z,5.00
2023-02-01T23:11:55.147Z,6.90
2023-02-01T23:14:23.677Z,6.40
2023-02-01T23:16:51.779Z,5.10
2023-02-01T23:19:21.023Z,9.20
2023-02-01T23:21:49.752Z,8.60
2023-02-01T23:24:18.186Z,6.10
2023-02-01T23:26:46.325Z,8.10
2023-02-01T23:29:18.659Z,6.90
2023-02-01T23:31:47.333Z,6.70
2023-02-01T23:34:15.542Z,7.60
2023-02-01T23:36:43.908Z,5.20
2023-02-01T23:39:12.023Z,4.90
2023-02-01T23:41:40.215Z,4.90
2023-02-01T23:44:08.645Z,6.90
2023-02-01T23:46:50.069Z,5.00
2023-02-01T23:49:18.659Z,5.50
2023-02-01T23:51:53.122Z,6.20
2023-02-01T23:54:23.669Z,6.50
2023-02-01T23:56:51.803Z,7.10
2023-02-01T23:59:22.215Z,7.10
